Time,TemperatureF,DewpointF,PressureIn,WindDirection,WindDirectionDegrees,WindSpeedMPH,WindSpeedGustMPH,Humidity,HourlyPrecipIn,Conditions,Clouds,dailyrainin,SoftwareType,DateUTC
2013-08-11 00:04:00,63.7,58.1,30.00,North,-999,0.0,0.0,82,0.00,,,0.09,pywws,2013-08-11 07:04:00,
2013-08-11 00:09:00,63.7,58.1,30.00,North,-999,0.0,0.0,82,0.00,,,0.00,pywws,2013-08-11 07:09:00,
2013-08-11 00:14:00,63.7,58.1,30.00,North,-999,0.0,0.0,82,0.00,,,0.00,pywws,2013-08-11 07:14:00,
2013-08-11 00:19:00,63.7,58.1,30.00,North,-999,0.0,0.0,82,0.00,,,0.00,pywws,2013-08-11 07:19:00,
2013-08-11 00:24:00,63.3,57.7,30.00,North,-999,0.0,0.0,82,0.00,,,0.00,pywws,2013-08-11 07:24:00,
2013-08-11 00:29:00,63.1,57.6,30.01,North,-999,0.0,0.0,82,0.00,,,0.00,pywws,2013-08-11 07:29:00,
2013-08-11 00:34:00,63.1,57.6,30.00,North,-999,0.0,0.0,82,0.00,,,0.00,pywws,2013-08-11 07:34:00,
2013-08-11 00:39:00,63.1,57.9,30.01,North,-999,0.0,0.0,83,0.00,,,0.00,pywws,2013-08-11 07:39:00,
2013-08-11 00:44:00,63.1,57.9,30.00,North,-999,0.0,0.0,83,0.00,,,0.00,pywws,2013-08-11 07:44:00,
2013-08-11 00:49:00,63.0,57.7,30.01,North,-999,0.0,0.0,83,0.00,,,0.00,pywws,2013-08-11 07:49:00,
2013-08-11 01:01:00,63.0,57.7,30.00,North,-999,0.0,0.0,83,0.00,,,0.00,pywws,2013-08-11 08:01:00,
2013-08-11 01:04:00,63.0,57.7,30.00,North,-999,0.0,0.0,83,0.00,,,0.00,pywws,2013-08-11 08:04:00,
2013-08-11 01:09:00,63.1,57.9,30.00,North,-999,0.0,0.0,83,0.00,,,0.00,pywws,2013-08-11 08:09:00,
2013-08-11 01:14:00,63.0,57.4,30.00,North,-999,0.0,0.0,82,0.00,,,0.00,pywws,2013-08-11 08:14:00,
2013-08-11 01:19:00,63.0,57.0,30.00,SE,135,0.7,2.2,81,0.00,,,0.00,pywws,2013-08-11 08:19:00,
2013-08-11 01:24:00,63.0,56.7,30.01,SE,135,1.6,2.2,80,0.00,,,0.00,pywws,2013-08-11 08:24:00,
2013-08-11 01:29:00,62.8,55.8,30.01,North,-999,0.0,0.0,78,0.00,,,0.00,pywws,2013-08-11 08:29:00,
2013-08-11 01:34:00,62.2,55.6,30.01,SE,135,0.7,3.1,79,0.00,,,0.00,pywws,2013-08-11 08:34:00,
2013-08-11 01:39:00,62.2,55.6,30.01,SE,135,0.7,2.2,79,0.00,,,0.00,pywws,2013-08-11 08:39:00,
2013-08-11 01:44:00,62.1,55.5,30.01,North,-999,0.0,0.0,79,0.00,,,0.00,pywws,2013-08-11 08:44:00,
2013-08-11 01:49:00,61.9,55.3,30.01,North,-999,0.0,0.0,79,0.00,,,0.00,pywws,2013-08-11 08:49:00,
2013-08-11 01:54:00,61.5,54.9,30.01,North,-999,0.0,0.0,79,0.00,,,0.00,pywws,2013-08-11 08:54:00,
2013-08-11 01:59:00,61.3,55.1,30.02,North,-999,0.0,0.7,80,0.00,,,0.00,pywws,2013-08-11 08:59:00,
2013-08-11 02:04:00,61.3,55.1,30.02,North,-999,0.0,0.0,80,0.00,,,0.00,pywws,2013-08-11 09:04:00,
2013-08-11 02:09:00,61.3,55.5,30.02,SE,135,0.7,3.1,81,0.00,,,0.00,pywws,2013-08-11 09:09:00,
2013-08-11 02:14:00,61.3,55.5,30.02,North,-999,0.0,0.0,81,0.00,,,0.00,pywws,2013-08-11 09:14:00,
2013-08-11 02:19:00,61.3,55.1,30.02,North,-999,0.0,0.0,80,0.00,,,0.00,pywws,2013-08-11 09:19:00,
2013-08-11 02:24:00,61.3,55.1,30.02,North,-999,0.0,0.0,80,0.00,,,0.00,pywws,2013-08-11 09:24:00,
2013-08-11 02:29:00,61.3,55.1,30.02,North,-999,0.0,0.0,80,0.00,,,0.00,pywws,2013-08-11 09:29:00,
2013-08-11 02:34:00,61.2,54.9,30.02,North,-999,0.0,0.0,80,0.00,,,0.00,pywws,2013-08-11 09:34:00,
2013-08-11 02:39:00,61.2,54.9,30.02,North,-999,0.0,0.0,80,0.00,,,0.00,pywws,2013-08-11 09:39:00,
2013-08-11 02:44:00,61.2,54.6,30.02,North,-999,0.0,0.0,79,0.00,,,0.00,pywws,2013-08-11 09:44:00,
2013-08-11 02:49:00,61.2,54.2,30.02,North,-999,0.0,0.0,78,0.00,,,0.00,pywws,2013-08-11 09:49:00,
2013-08-11 03:03:00,61.2,54.2,30.02,North,-999,0.0,0.0,78,0.00,,,0.00,pywws,2013-08-11 10:03:00,
2013-08-11 03:04:00,61.0,54.1,30.03,North,-999,0.0,0.0,78,0.00,,,0.00,pywws,2013-08-11 10:04:00,
2013-08-11 03:09:00,60.8,53.5,30.03,North,-999,0.0,0.0,77,0.00,,,0.00,pywws,2013-08-11 10:09:00,
2013-08-11 03:14:00,60.6,53.7,30.03,North,-999,0.0,0.0,78,0.00,,,0.00,pywws,2013-08-11 10:14:00,
2013-08-11 03:19:00,60.4,53.5,30.04,North,-999,0.0,0.0,78,0.00,,,0.00,pywws,2013-08-11 10:19:00,
2013-08-11 03:24:00,60.4,53.9,30.03,North,-999,0.0,0.0,79,0.00,,,0.00,pywws,2013-08-11 10:24:00,
2013-08-11 03:29:00,60.4,53.9,30.03,North,-999,0.0,0.0,79,0.00,,,0.00,pywws,2013-08-11 10:29:00,
2013-08-11 03:34:00,60.4,53.9,30.03,North,-999,0.0,0.0,79,0.00,,,0.00,pywws,2013-08-11 10:34:00,
2013-08-11 03:39:00,60.3,54.1,30.03,SE,135,1.6,2.2,80,0.00,,,0.00,pywws,2013-08-11 10:39:00,
2013-08-11 03:44:00,60.3,54.1,30.02,SE,135,1.6,2.2,80,0.00,,,0.00,pywws,2013-08-11 10:44:00,
2013-08-11 03:49:00,60.1,53.5,30.02,SE,135,1.6,3.1,79,0.00,,,0.00,pywws,2013-08-11 10:49:00,
2013-08-11 04:02:00,60.1,53.9,30.02,SE,135,0.7,3.1,80,0.00,,,0.00,pywws,2013-08-11 11:02:00,
2013-08-11 04:04:00,59.9,53.7,30.02,North,-999,0.0,0.0,80,0.00,,,0.00,pywws,2013-08-11 11:04:00,
2013-08-11 04:09:00,59.5,53.4,30.02,North,-999,0.0,0.0,80,0.00,,,0.00,pywws,2013-08-11 11:09:00,
2013-08-11 04:14:00,59.5,53.4,30.02,North,-999,0.0,0.0,80,0.00,,,0.00,pywws,2013-08-11 11:14:00,
2013-08-11 04:19:00,59.5,53.7,30.03,North,-999,0.0,0.0,81,0.00,,,0.00,pywws,2013-08-11 11:19:00,
2013-08-11 04:24:00,59.5,53.7,30.03,SE,135,0.7,3.1,81,0.00,,,0.00,pywws,2013-08-11 11:24:00,
2013-08-11 04:29:00,59.5,53.7,30.03,SE,135,1.6,3.8,81,0.00,,,0.00,pywws,2013-08-11 11:29:00,
2013-08-11 04:34:00,59.5,53.7,30.03,North,-999,0.0,0.0,81,0.00,,,0.00,pywws,2013-08-11 11:34:00,
2013-08-11 04:39:00,59.5,53.7,30.03,North,-999,0.0,0.0,81,0.00,,,0.00,pywws,2013-08-11 11:39:00,
2013-08-11 04:44:00,59.4,53.5,30.03,North,-999,0.0,0.0,81,0.00,,,0.00,pywws,2013-08-11 11:44:00,
2013-08-11 04:49:00,59.4,53.5,30.03,North,-999,0.0,0.0,81,0.00,,,0.00,pywws,2013-08-11 11:49:00,
2013-08-11 04:54:00,59.4,53.5,30.03,SE,135,2.2,3.8,81,0.00,,,0.00,pywws,2013-08-11 11:54:00,
2013-08-11 04:59:00,59.4,53.5,30.03,SE,135,0.7,3.1,81,0.00,,,0.00,pywws,2013-08-11 11:59:00,
2013-08-11 05:04:00,59.4,53.5,30.03,North,-999,0.0,0.0,81,0.00,,,0.00,pywws,2013-08-11 12:04:00,
2013-08-11 05:09:00,59.2,53.4,30.03,SE,135,0.7,2.2,81,0.00,,,0.00,pywws,2013-08-11 12:09:00,
2013-08-11 05:14:00,59.4,53.5,30.03,SE,135,0.7,2.2,81,0.00,,,0.00,pywws,2013-08-11 12:14:00,
2013-08-11 05:19:00,59.4,53.9,30.03,North,-999,0.0,0.0,82,0.00,,,0.00,pywws,2013-08-11 12:19:00,
2013-08-11 05:24:00,59.4,53.9,30.03,North,-999,0.0,0.0,82,0.00,,,0.00,pywws,2013-08-11 12:24:00,
2013-08-11 05:29:00,59.4,53.9,30.03,SE,135,0.7,1.6,82,0.00,,,0.00,pywws,2013-08-11 12:29:00,
2013-08-11 05:34:00,59.2,53.7,30.03,North,-999,0.0,0.0,82,0.00,,,0.00,pywws,2013-08-11 12:34:00,
2013-08-11 05:39:00,59.4,53.9,30.03,North,-999,0.0,1.6,82,0.00,,,0.00,pywws,2013-08-11 12:39:00,
2013-08-11 05:44:00,59.4,53.9,30.03,SE,135,1.6,3.1,82,0.00,,,0.00,pywws,2013-08-11 12:44:00,
2013-08-11 05:49:00,59.4,53.9,30.04,North,-999,0.0,1.6,82,0.00,,,0.00,pywws,2013-08-11 12:49:00,
2013-08-11 05:54:00,59.4,53.9,30.04,North,-999,0.0,0.7,82,0.00,,,0.00,pywws,2013-08-11 12:54:00,
2013-08-11 05:59:00,59.5,54.0,30.04,North,-999,0.0,0.0,82,0.00,,,0.00,pywws,2013-08-11 12:59:00,
2013-08-11 06:04:00,59.5,54.0,30.04,North,-999,0.0,0.0,82,0.00,,,0.00,pywws,2013-08-11 13:04:00,
2013-08-11 06:09:00,59.5,54.0,30.04,North,-999,0.0,0.0,82,0.00,,,0.00,pywws,2013-08-11 13:09:00,
2013-08-11 06:14:00,59.7,54.2,30.05,North,-999,0.0,0.0,82,0.00,,,0.00,pywws,2013-08-11 13:14:00,
2013-08-11 06:19:00,59.7,54.2,30.05,North,-999,0.0,0.0,82,0.00,,,0.00,pywws,2013-08-11 13:19:00,
2013-08-11 06:24:00,59.7,54.5,30.05,North,-999,0.0,0.0,83,0.00,,,0.00,pywws,2013-08-11 13:24:00,
2013-08-11 06:29:00,59.7,54.2,30.05,North,-999,0.0,0.0,82,0.00,,,0.00,pywws,2013-08-11 13:29:00,
2013-08-11 06:34:00,59.7,54.2,30.05,North,-999,0.0,0.0,82,0.00,,,0.00,pywws,2013-08-11 13:34:00,
2013-08-11 06:39:00,59.9,54.1,30.04,North,-999,0.0,0.0,81,0.00,,,0.00,pywws,2013-08-11 13:39:00,
2013-08-11 06:44:00,59.9,53.7,30.04,North,-999,0.0,0.0,80,0.00,,,0.00,pywws,2013-08-11 13:44:00,
2013-08-11 06:49:00,59.9,53.7,30.04,North,-999,0.0,0.0,80,0.00,,,0.00,pywws,2013-08-11 13:49:00,
2013-08-11 07:02:00,60.1,53.5,30.03,North,-999,0.0,0.0,79,0.00,,,0.00,pywws,2013-08-11 14:02:00,
2013-08-11 07:04:00,60.3,53.7,30.04,North,-999,0.0,0.0,79,0.00,,,0.00,pywws,2013-08-11 14:04:00,
2013-08-11 07:09:00,60.3,54.1,30.04,North,-999,0.0,0.0,80,0.00,,,0.00,pywws,2013-08-11 14:09:00,
2013-08-11 07:14:00,60.4,53.9,30.04,North,-999,0.0,0.0,79,0.00,,,0.00,pywws,2013-08-11 14:14:00,
2013-08-11 07:19:00,60.3,53.4,30.04,North,-999,0.0,0.0,78,0.00,,,0.00,pywws,2013-08-11 14:19:00,
2013-08-11 07:24:00,60.4,53.5,30.04,North,-999,0.0,0.0,78,0.00,,,0.00,pywws,2013-08-11 14:24:00,
2013-08-11 07:29:00,60.3,53.0,30.04,North,-999,0.0,0.0,77,0.00,,,0.00,pywws,2013-08-11 14:29:00,
2013-08-11 07:34:00,59.9,52.3,30.04,North,-999,0.0,0.0,76,0.00,,,0.00,pywws,2013-08-11 14:34:00,
2013-08-11 07:39:00,60.1,52.5,30.04,North,-999,0.0,0.0,76,0.00,,,0.00,pywws,2013-08-11 14:39:00,
2013-08-11 07:44:00,59.7,52.1,30.05,North,-999,0.0,0.0,76,0.00,,,0.00,pywws,2013-08-11 14:44:00,
2013-08-11 07:49:00,60.1,52.5,30.05,North,-999,0.0,0.0,76,0.00,,,0.00,pywws,2013-08-11 14:49:00,
2013-08-11 08:03:00,60.1,52.5,30.05,North,-999,0.0,0.0,76,0.00,,,0.00,pywws,2013-08-11 15:03:00,
2013-08-11 08:04:00,59.5,52.0,30.05,North,-999,0.0,0.0,76,0.00,,,0.00,pywws,2013-08-11 15:04:00,
2013-08-11 08:09:00,59.7,52.1,30.05,North,-999,0.0,0.0,76,0.00,,,0.00,pywws,2013-08-11 15:09:00,
2013-08-11 08:14:00,59.9,52.3,30.05,North,-999,0.0,0.0,76,0.00,,,0.00,pywws,2013-08-11 15:14:00,
2013-08-11 08:19:00,59.9,52.3,30.05,North,-999,0.0,0.0,76,0.00,,,0.00,pywws,2013-08-11 15:19:00,
2013-08-11 08:24:00,60.1,52.8,30.05,North,-999,0.0,0.0,77,0.00,,,0.00,pywws,2013-08-11 15:24:00,
2013-08-11 08:29:00,59.9,52.3,30.05,North,-999,0.0,0.0,76,0.00,,,0.00,pywws,2013-08-11 15:29:00,
2013-08-11 08:34:00,59.7,52.1,30.05,North,-999,0.0,0.0,76,0.00,,,0.00,pywws,2013-08-11 15:34:00,
2013-08-11 08:39:00,59.5,52.3,30.05,North,-999,0.0,0.0,77,0.00,,,0.00,pywws,2013-08-11 15:39:00,
2013-08-11 08:44:00,59.7,52.8,30.05,North,-999,0.0,0.0,78,0.00,,,0.00,pywws,2013-08-11 15:44:00,
2013-08-11 08:49:00,59.9,53.0,30.05,North,-999,0.0,0.0,78,0.00,,,0.00,pywws,2013-08-11 15:49:00,
2013-08-11 09:02:00,60.1,52.8,30.05,North,-999,0.0,0.0,77,0.00,,,0.00,pywws,2013-08-11 16:02:00,
2013-08-11 09:04:00,60.3,53.0,30.05,North,-999,0.0,0.0,77,0.00,,,0.00,pywws,2013-08-11 16:04:00,
2013-08-11 09:09:00,60.1,53.2,30.05,North,-999,0.0,0.0,78,0.00,,,0.00,pywws,2013-08-11 16:09:00,
2013-08-11 09:14:00,59.9,53.4,30.05,North,-999,0.0,0.0,79,0.00,,,0.00,pywws,2013-08-11 16:14:00,
2013-08-11 09:19:00,60.3,53.7,30.05,North,-999,0.0,0.0,79,0.00,,,0.00,pywws,2013-08-11 16:19:00,
2013-08-11 09:24:00,60.3,53.7,30.05,North,-999,0.0,0.0,79,0.00,,,0.00,pywws,2013-08-11 16:24:00,
2013-08-11 09:29:00,60.4,53.5,30.05,North,-999,0.0,0.0,78,0.00,,,0.00,pywws,2013-08-11 16:29:00,
2013-08-11 09:34:00,60.3,53.4,30.05,North,-999,0.0,0.0,78,0.00,,,0.00,pywws,2013-08-11 16:34:00,
2013-08-11 09:39:00,60.4,53.5,30.05,North,-999,0.0,0.0,78,0.00,,,0.00,pywws,2013-08-11 16:39:00,
2013-08-11 09:44:00,60.8,53.5,30.05,North,-999,0.0,0.0,77,0.00,,,0.00,pywws,2013-08-11 16:44:00,
2013-08-11 09:49:00,61.0,53.7,30.05,North,-999,0.0,0.0,77,0.00,,,0.00,pywws,2013-08-11 16:49:00,
2013-08-11 10:02:00,61.2,53.5,30.06,North,-999,0.0,0.0,76,0.00,,,0.00,pywws,2013-08-11 17:02:00,
2013-08-11 10:04:00,61.7,54.1,30.06,North,-999,0.0,0.0,76,0.00,,,0.00,pywws,2013-08-11 17:04:00,
2013-08-11 10:09:00,61.9,53.9,30.05,North,-999,0.0,0.0,75,0.00,,,0.00,pywws,2013-08-11 17:09:00,
2013-08-11 10:14:00,62.2,54.2,30.06,North,-999,0.0,0.0,75,0.00,,,0.00,pywws,2013-08-11 17:14:00,
2013-08-11 10:19:00,62.4,54.4,30.06,North,-999,0.0,0.0,75,0.00,,,0.00,pywws,2013-08-11 17:19:00,
2013-08-11 10:24:00,63.0,54.2,30.05,North,-999,0.0,0.0,73,0.00,,,0.00,pywws,2013-08-11 17:24:00,
2013-08-11 10:29:00,63.1,54.7,30.06,North,-999,0.0,0.0,74,0.00,,,0.00,pywws,2013-08-11 17:29:00,
2013-08-11 10:34:00,63.7,55.2,30.06,North,-999,0.0,0.0,74,0.00,,,0.00,pywws,2013-08-11 17:34:00,
2013-08-11 10:39:00,64.8,56.6,30.05,North,-999,0.0,0.0,75,0.00,,,0.00,pywws,2013-08-11 17:39:00,
2013-08-11 10:44:00,64.9,56.8,30.05,North,-999,0.0,0.0,75,0.00,,,0.00,pywws,2013-08-11 17:44:00,
2013-08-11 10:49:00,65.5,56.6,30.05,North,-999,0.0,0.0,73,0.00,,,0.00,pywws,2013-08-11 17:49:00,
2013-08-11 11:01:00,65.7,56.0,30.05,SE,135,0.7,1.6,71,0.00,,,0.00,pywws,2013-08-11 18:01:00,
2013-08-11 11:04:00,66.0,56.3,30.06,North,-999,0.0,0.0,71,0.00,,,0.00,pywws,2013-08-11 18:04:00,
2013-08-11 11:09:00,66.2,55.7,30.05,North,-999,0.0,0.0,69,0.00,,,0.00,pywws,2013-08-11 18:09:00,
2013-08-11 11:14:00,66.6,56.1,30.05,North,-999,0.0,0.0,69,0.00,,,0.00,pywws,2013-08-11 18:14:00,
2013-08-11 11:19:00,67.1,56.6,30.05,North,-999,0.0,0.0,69,0.00,,,0.00,pywws,2013-08-11 18:19:00,
2013-08-11 11:24:00,66.9,56.4,30.05,North,-999,0.0,0.0,69,0.00,,,0.00,pywws,2013-08-11 18:24:00,
2013-08-11 11:29:00,66.7,56.2,30.05,North,-999,0.0,0.0,69,0.00,,,0.00,pywws,2013-08-11 18:29:00,
2013-08-11 11:34:00,66.4,55.5,30.05,North,-999,0.0,0.0,68,0.00,,,0.00,pywws,2013-08-11 18:34:00,
2013-08-11 11:39:00,66.7,55.8,30.05,North,-999,0.0,0.0,68,0.00,,,0.00,pywws,2013-08-11 18:39:00,
2013-08-11 11:44:00,66.2,55.3,30.05,North,-999,0.0,0.0,68,0.00,,,0.00,pywws,2013-08-11 18:44:00,
2013-08-11 11:49:00,66.2,56.1,30.04,North,-999,0.0,1.6,70,0.00,,,0.00,pywws,2013-08-11 18:49:00,
2013-08-11 12:01:00,66.7,56.6,30.04,SE,135,1.6,2.2,70,0.00,,,0.00,pywws,2013-08-11 19:01:00,
2013-08-11 12:04:00,67.6,56.7,30.04,SE,135,0.7,3.1,68,0.00,,,0.00,pywws,2013-08-11 19:04:00,
2013-08-11 12:09:00,67.1,56.2,30.04,North,-999,0.0,0.0,68,0.00,,,0.00,pywws,2013-08-11 19:09:00,
2013-08-11 12:14:00,67.6,56.7,30.04,North,-999,0.0,0.0,68,0.00,,,0.00,pywws,2013-08-11 19:14:00,
2013-08-11 12:19:00,68.7,57.7,30.04,North,-999,0.0,0.0,68,0.00,,,0.00,pywws,2013-08-11 19:19:00,
2013-08-11 12:24:00,68.2,56.8,30.04,North,-999,0.0,0.0,67,0.00,,,0.00,pywws,2013-08-11 19:24:00,
2013-08-11 12:29:00,68.0,56.6,30.04,North,-999,0.0,0.0,67,0.00,,,0.00,pywws,2013-08-11 19:29:00,
2013-08-11 12:34:00,68.0,57.0,30.04,North,-999,0.0,0.0,68,0.00,,,0.00,pywws,2013-08-11 19:34:00,
2013-08-11 12:39:00,68.4,57.4,30.04,North,-999,0.0,0.0,68,0.00,,,0.00,pywws,2013-08-11 19:39:00,
2013-08-11 12:44:00,69.6,58.6,30.03,North,-999,0.0,0.0,68,0.00,,,0.00,pywws,2013-08-11 19:44:00,
2013-08-11 12:49:00,72.3,59.4,30.03,North,-999,0.0,0.0,64,0.00,,,0.00,pywws,2013-08-11 19:49:00,
2013-08-11 13:01:00,71.2,58.0,30.03,SE,135,1.6,3.1,63,0.00,,,0.00,pywws,2013-08-11 20:01:00,
2013-08-11 13:04:00,73.0,59.7,30.03,North,-999,0.0,0.0,63,0.00,,,0.00,pywws,2013-08-11 20:04:00,
2013-08-11 13:09:00,73.6,58.8,30.03,North,-999,0.0,0.0,60,0.00,,,0.00,pywws,2013-08-11 20:09:00,
2013-08-11 13:14:00,73.4,59.1,30.03,North,-999,0.0,0.7,61,0.00,,,0.00,pywws,2013-08-11 20:14:00,
2013-08-11 13:19:00,73.9,58.2,30.04,North,-999,0.0,1.6,58,0.00,,,0.00,pywws,2013-08-11 20:19:00,
2013-08-11 13:24:00,74.3,58.1,30.03,North,-999,0.0,1.6,57,0.00,,,0.00,pywws,2013-08-11 20:24:00,
2013-08-11 13:29:00,73.8,59.5,30.03,North,-999,0.0,0.0,61,0.00,,,0.00,pywws,2013-08-11 20:29:00,
2013-08-11 13:34:00,75.6,59.7,30.03,North,-999,0.0,0.0,58,0.00,,,0.00,pywws,2013-08-11 20:34:00,
2013-08-11 13:39:00,76.1,58.7,30.03,North,-999,0.0,0.0,55,0.00,,,0.00,pywws,2013-08-11 20:39:00,
2013-08-11 13:44:00,76.1,59.2,30.02,North,-999,0.0,0.0,56,0.00,,,0.00,pywws,2013-08-11 20:44:00,
2013-08-11 13:49:00,76.3,59.4,30.03,North,-999,0.0,0.0,56,0.00,,,0.00,pywws,2013-08-11 20:49:00,
2013-08-11 14:01:00,74.5,57.7,30.02,North,-999,0.0,0.0,56,0.00,,,0.00,pywws,2013-08-11 21:01:00,
2013-08-11 14:04:00,77.2,59.7,30.02,North,-999,0.0,0.0,55,0.00,,,0.00,pywws,2013-08-11 21:04:00,
2013-08-11 14:09:00,75.6,58.7,30.02,North,-999,0.0,0.0,56,0.00,,,0.00,pywws,2013-08-11 21:09:00,
2013-08-11 14:14:00,73.6,56.9,30.02,SE,135,2.2,3.8,56,0.00,,,0.00,pywws,2013-08-11 21:14:00,
2013-08-11 14:19:00,76.5,59.1,30.02,SE,135,1.6,2.2,55,0.00,,,0.00,pywws,2013-08-11 21:19:00,
2013-08-11 14:24:00,76.5,59.6,30.02,North,-999,0.0,0.0,56,0.00,,,0.00,pywws,2013-08-11 21:24:00,
2013-08-11 14:29:00,76.5,59.1,30.02,North,-999,0.0,0.0,55,0.00,,,0.00,pywws,2013-08-11 21:29:00,
2013-08-11 14:34:00,75.6,58.2,30.02,North,-999,0.0,0.7,55,0.00,,,0.00,pywws,2013-08-11 21:34:00,
2013-08-11 14:39:00,76.8,60.4,30.02,North,-999,0.0,0.0,57,0.00,,,0.00,pywws,2013-08-11 21:39:00,
2013-08-11 14:44:00,75.2,57.9,30.02,North,-999,0.0,0.0,55,0.00,,,0.00,pywws,2013-08-11 21:44:00,
2013-08-11 14:49:00,78.6,61.6,30.02,North,-999,0.0,0.0,56,0.00,,,0.00,pywws,2013-08-11 21:49:00,
2013-08-11 14:54:00,77.4,59.9,30.02,North,-999,0.0,0.0,55,0.00,,,0.00,pywws,2013-08-11 21:54:00,
2013-08-11 14:59:00,78.8,60.2,30.01,North,-999,0.0,0.0,53,0.00,,,0.00,pywws,2013-08-11 21:59:00,
2013-08-11 15:04:00,78.8,60.7,30.01,North,-999,0.0,0.0,54,0.00,,,0.00,pywws,2013-08-11 22:04:00,
2013-08-11 15:09:00,76.5,58.6,30.01,SE,135,0.7,1.6,54,0.00,,,0.00,pywws,2013-08-11 22:09:00,
2013-08-11 15:14:00,76.3,58.4,30.01,North,-999,0.0,0.0,54,0.00,,,0.00,pywws,2013-08-11 22:14:00,
2013-08-11 15:19:00,75.0,58.2,30.00,SE,135,2.2,3.8,56,0.00,,,0.00,pywws,2013-08-11 22:19:00,
2013-08-11 15:24:00,76.1,59.2,30.01,SE,135,1.6,3.8,56,0.00,,,0.00,pywws,2013-08-11 22:24:00,
2013-08-11 15:29:00,74.7,58.4,30.00,North,-999,0.0,0.0,57,0.00,,,0.00,pywws,2013-08-11 22:29:00,
2013-08-11 15:34:00,75.2,58.4,30.00,North,-999,0.0,0.0,56,0.00,,,0.00,pywws,2013-08-11 22:34:00,
2013-08-11 15:39:00,75.0,59.2,30.00,North,-999,0.0,0.0,58,0.00,,,0.00,pywws,2013-08-11 22:39:00,
2013-08-11 15:44:00,73.0,58.3,29.99,North,-999,0.0,0.0,60,0.00,,,0.00,pywws,2013-08-11 22:44:00,
2013-08-11 15:49:00,72.5,58.7,30.00,SE,135,0.7,1.6,62,0.00,,,0.00,pywws,2013-08-11 22:49:00,
2013-08-11 16:03:00,72.3,58.6,29.99,North,-999,0.0,0.0,62,0.00,,,0.00,pywws,2013-08-11 23:03:00,
2013-08-11 16:04:00,72.3,58.1,29.99,North,-999,0.0,0.0,61,0.00,,,0.00,pywws,2013-08-11 23:04:00,
2013-08-11 16:09:00,71.6,57.9,29.99,North,-999,0.0,0.0,62,0.00,,,0.00,pywws,2013-08-11 23:09:00,
2013-08-11 16:14:00,71.1,58.3,29.99,North,-999,0.0,0.0,64,0.00,,,0.00,pywws,2013-08-11 23:14:00,
2013-08-11 16:19:00,71.6,58.3,29.99,SE,135,1.6,3.1,63,0.00,,,0.00,pywws,2013-08-11 23:19:00,
2013-08-11 16:24:00,73.0,58.8,29.99,North,-999,0.0,0.0,61,0.00,,,0.00,pywws,2013-08-11 23:24:00,
2013-08-11 16:29:00,74.1,58.9,29.98,North,-999,0.0,0.0,59,0.00,,,0.00,pywws,2013-08-11 23:29:00,
2013-08-11 16:34:00,74.8,59.5,29.98,North,-999,0.0,0.0,59,0.00,,,0.00,pywws,2013-08-11 23:34:00,
2013-08-11 16:39:00,76.6,60.7,29.99,North,-999,0.0,0.0,58,0.00,,,0.00,pywws,2013-08-11 23:39:00,
2013-08-11 16:44:00,75.0,59.2,29.99,North,-999,0.0,0.0,58,0.00,,,0.00,pywws,2013-08-11 23:44:00,
2013-08-11 16:49:00,75.0,59.2,29.99,North,-999,0.0,0.0,58,0.00,,,0.00,pywws,2013-08-11 23:49:00,
2013-08-11 17:01:00,74.1,57.9,29.99,SE,135,1.6,2.2,57,0.00,,,0.00,pywws,2013-08-12 00:01:00,
2013-08-11 17:04:00,74.3,58.6,29.99,North,-999,0.0,0.0,58,0.00,,,0.00,pywws,2013-08-12 00:04:00,
2013-08-11 17:09:00,72.3,58.1,29.99,North,-999,0.0,0.0,61,0.00,,,0.00,pywws,2013-08-12 00:09:00,
2013-08-11 17:14:00,72.1,57.9,29.99,North,-999,0.0,0.0,61,0.00,,,0.00,pywws,2013-08-12 00:14:00,
2013-08-11 17:19:00,72.3,58.1,29.99,North,-999,0.0,0.0,61,0.00,,,0.00,pywws,2013-08-12 00:19:00,
2013-08-11 17:24:00,71.8,58.0,29.99,North,-999,0.0,0.0,62,0.00,,,0.00,pywws,2013-08-12 00:24:00,
2013-08-11 17:29:00,72.1,58.8,29.99,North,-999,0.0,0.0,63,0.00,,,0.00,pywws,2013-08-12 00:29:00,
2013-08-11 17:34:00,71.6,57.9,29.99,North,-999,0.0,0.0,62,0.00,,,0.00,pywws,2013-08-12 00:34:00,
2013-08-11 17:39:00,71.6,57.4,29.99,North,-999,0.0,0.0,61,0.00,,,0.00,pywws,2013-08-12 00:39:00,
2013-08-11 17:44:00,71.4,57.7,29.98,North,-999,0.0,0.0,62,0.00,,,0.00,pywws,2013-08-12 00:44:00,
2013-08-11 17:49:00,71.1,57.4,29.99,North,-999,0.0,0.0,62,0.00,,,0.00,pywws,2013-08-12 00:49:00,
2013-08-11 18:02:00,70.7,57.0,29.99,North,-999,0.0,0.0,62,0.00,,,0.00,pywws,2013-08-12 01:02:00,
2013-08-11 18:04:00,70.7,57.5,29.98,SE,135,0.7,1.6,63,0.00,,,0.00,pywws,2013-08-12 01:04:00,
2013-08-11 18:09:00,70.9,58.1,29.98,North,-999,0.0,0.0,64,0.00,,,0.00,pywws,2013-08-12 01:09:00,
2013-08-11 18:14:00,70.9,58.1,29.98,North,-999,0.0,0.0,64,0.00,,,0.00,pywws,2013-08-12 01:14:00,
2013-08-11 18:19:00,71.4,58.6,29.98,North,-999,0.0,0.0,64,0.00,,,0.00,pywws,2013-08-12 01:19:00,
2013-08-11 18:24:00,71.2,58.9,29.98,North,-999,0.0,0.0,65,0.00,,,0.00,pywws,2013-08-12 01:24:00,
2013-08-11 18:29:00,70.7,57.9,29.98,North,-999,0.0,0.0,64,0.00,,,0.00,pywws,2013-08-12 01:29:00,
2013-08-11 18:34:00,71.2,58.4,29.98,North,-999,0.0,0.0,64,0.00,,,0.00,pywws,2013-08-12 01:34:00,
2013-08-11 18:39:00,70.9,58.1,29.98,North,-999,0.0,0.0,64,0.00,,,0.00,pywws,2013-08-12 01:39:00,
2013-08-11 18:44:00,70.9,58.1,29.98,North,-999,0.0,0.0,64,0.00,,,0.00,pywws,2013-08-12 01:44:00,
2013-08-11 18:49:00,70.5,57.7,29.98,North,-999,0.0,0.0,64,0.00,,,0.00,pywws,2013-08-12 01:49:00,
2013-08-11 19:02:00,70.3,57.1,29.98,North,-999,0.0,0.0,63,0.00,,,0.00,pywws,2013-08-12 02:02:00,
2013-08-11 19:04:00,70.5,58.2,29.98,North,-999,0.0,0.0,65,0.00,,,0.00,pywws,2013-08-12 02:04:00,
2013-08-11 19:09:00,70.5,58.2,29.98,North,-999,0.0,0.0,65,0.00,,,0.00,pywws,2013-08-12 02:09:00,
2013-08-11 19:14:00,70.3,58.4,29.98,North,-999,0.0,0.0,66,0.00,,,0.00,pywws,2013-08-12 02:14:00,
2013-08-11 19:19:00,70.3,58.0,29.98,North,-999,0.0,0.0,65,0.00,,,0.00,pywws,2013-08-12 02:19:00,
2013-08-11 19:24:00,70.2,57.8,29.98,North,-999,0.0,0.0,65,0.00,,,0.00,pywws,2013-08-12 02:24:00,
2013-08-11 19:29:00,70.2,57.8,29.98,North,-999,0.0,0.0,65,0.00,,,0.00,pywws,2013-08-12 02:29:00,
2013-08-11 19:34:00,70.2,58.3,29.98,North,-999,0.0,0.0,66,0.00,,,0.00,pywws,2013-08-12 02:34:00,
2013-08-11 19:39:00,69.8,58.3,29.98,North,-999,0.0,0.0,67,0.00,,,0.00,pywws,2013-08-12 02:39:00,
2013-08-11 19:44:00,69.6,58.6,29.98,North,-999,0.0,0.0,68,0.00,,,0.00,pywws,2013-08-12 02:44:00,
2013-08-11 19:49:00,69.6,58.2,29.98,North,-999,0.0,0.0,67,0.00,,,0.00,pywws,2013-08-12 02:49:00,
2013-08-11 19:54:00,69.3,58.2,29.99,North,-999,0.0,0.0,68,0.00,,,0.00,pywws,2013-08-12 02:54:00,
2013-08-11 20:04:00,69.3,58.2,29.98,North,-999,0.0,0.0,68,0.00,,,0.00,pywws,2013-08-12 03:04:00,
2013-08-11 20:09:00,68.9,58.3,29.98,North,-999,0.0,0.0,69,0.00,,,0.00,pywws,2013-08-12 03:09:00,
2013-08-11 20:14:00,68.7,58.1,29.99,North,-999,0.0,0.0,69,0.00,,,0.00,pywws,2013-08-12 03:14:00,
2013-08-11 20:19:00,68.5,58.4,29.99,North,-999,0.0,0.0,70,0.00,,,0.00,pywws,2013-08-12 03:19:00,
2013-08-11 20:24:00,68.4,58.2,29.99,North,-999,0.0,0.0,70,0.00,,,0.00,pywws,2013-08-12 03:24:00,
2013-08-11 20:29:00,68.2,58.0,29.99,North,-999,0.0,0.0,70,0.00,,,0.00,pywws,2013-08-12 03:29:00,
2013-08-11 20:34:00,68.2,58.0,29.99,North,-999,0.0,0.0,70,0.00,,,0.00,pywws,2013-08-12 03:34:00,
2013-08-11 20:39:00,68.2,58.0,29.99,North,-999,0.0,0.0,70,0.00,,,0.00,pywws,2013-08-12 03:39:00,
2013-08-11 20:44:00,68.0,58.2,29.99,North,-999,0.0,0.0,71,0.00,,,0.00,pywws,2013-08-12 03:44:00,
2013-08-11 20:49:00,67.6,58.3,29.99,North,-999,0.0,0.0,72,0.00,,,0.00,pywws,2013-08-12 03:49:00,
2013-08-11 21:01:00,67.8,58.5,29.99,North,-999,0.0,0.0,72,0.00,,,0.00,pywws,2013-08-12 04:01:00,
2013-08-11 21:04:00,67.6,58.3,29.99,North,-999,0.0,0.0,72,0.00,,,0.00,pywws,2013-08-12 04:04:00,
2013-08-11 21:09:00,67.5,58.5,29.99,North,-999,0.0,0.0,73,0.00,,,0.00,pywws,2013-08-12 04:09:00,
2013-08-11 21:14:00,67.5,58.5,29.99,North,-999,0.0,0.0,73,0.00,,,0.00,pywws,2013-08-12 04:14:00,
2013-08-11 21:19:00,67.3,58.3,29.99,North,-999,0.0,0.0,73,0.00,,,0.00,pywws,2013-08-12 04:19:00,
2013-08-11 21:24:00,67.1,58.5,29.99,North,-999,0.0,0.0,74,0.00,,,0.00,pywws,2013-08-12 04:24:00,
2013-08-11 21:29:00,67.1,58.5,29.99,North,-999,0.0,0.0,74,0.00,,,0.00,pywws,2013-08-12 04:29:00,
2013-08-11 21:34:00,67.1,58.5,29.99,North,-999,0.0,0.0,74,0.00,,,0.00,pywws,2013-08-12 04:34:00,
2013-08-11 21:39:00,67.1,58.5,29.99,North,-999,0.0,0.0,74,0.00,,,0.00,pywws,2013-08-12 04:39:00,
2013-08-11 21:44:00,67.3,58.7,29.99,North,-999,0.0,0.0,74,0.00,,,0.00,pywws,2013-08-12 04:44:00,
2013-08-11 21:49:00,66.7,58.2,29.99,North,-999,0.0,0.0,74,0.00,,,0.00,pywws,2013-08-12 04:49:00,
2013-08-11 22:01:00,66.6,58.0,29.99,North,-999,0.0,0.0,74,0.00,,,0.00,pywws,2013-08-12 05:01:00,
2013-08-11 22:04:00,66.6,58.0,29.99,North,-999,0.0,0.0,74,0.00,,,0.00,pywws,2013-08-12 05:04:00,
2013-08-11 22:09:00,66.2,57.7,29.99,North,-999,0.0,0.0,74,0.00,,,0.00,pywws,2013-08-12 05:09:00,
2013-08-11 22:14:00,66.0,57.9,30.00,North,-999,0.0,0.0,75,0.00,,,0.00,pywws,2013-08-12 05:14:00,
2013-08-11 22:24:00,66.0,57.9,29.99,North,-999,0.0,0.0,75,0.00,,,0.00,pywws,2013-08-12 05:24:00,
2013-08-11 22:29:00,65.8,57.7,30.00,North,-999,0.0,0.0,75,0.00,,,0.00,pywws,2013-08-12 05:29:00,
2013-08-11 22:34:00,65.8,58.1,30.00,North,-999,0.0,0.0,76,0.00,,,0.00,pywws,2013-08-12 05:34:00,
2013-08-11 22:39:00,65.8,58.1,30.00,North,-999,0.0,0.0,76,0.00,,,0.00,pywws,2013-08-12 05:39:00,
2013-08-11 22:44:00,65.5,57.7,30.00,North,-999,0.0,0.0,76,0.00,,,0.00,pywws,2013-08-12 05:44:00,
2013-08-11 22:49:00,65.7,57.9,30.00,North,-999,0.0,0.0,76,0.00,,,0.00,pywws,2013-08-12 05:49:00,
2013-08-11 23:01:00,65.8,58.1,29.99,North,-999,0.0,0.0,76,0.00,,,0.00,pywws,2013-08-12 06:01:00,
2013-08-11 23:04:00,65.7,57.9,30.00,North,-999,0.0,0.0,76,0.00,,,0.00,pywws,2013-08-12 06:04:00,
2013-08-11 23:09:00,65.7,57.9,30.00,North,-999,0.0,0.0,76,0.00,,,0.00,pywws,2013-08-12 06:09:00,
2013-08-11 23:14:00,65.3,57.5,30.00,North,-999,0.0,0.0,76,0.00,,,0.00,pywws,2013-08-12 06:14:00,
2013-08-11 23:19:00,65.1,57.4,30.00,North,-999,0.0,0.0,76,0.00,,,0.00,pywws,2013-08-12 06:19:00,
2013-08-11 23:24:00,65.1,57.4,30.00,North,-999,0.0,0.0,76,0.00,,,0.00,pywws,2013-08-12 06:24:00,
2013-08-11 23:29:00,64.6,57.2,30.00,North,-999,0.0,0.0,77,0.00,,,0.00,pywws,2013-08-12 06:29:00,
2013-08-11 23:34:00,64.4,57.0,30.00,North,-999,0.0,0.0,77,0.00,,,0.00,pywws,2013-08-12 06:34:00,
2013-08-11 23:39:00,64.0,56.7,30.00,North,-999,0.0,0.0,77,0.00,,,0.00,pywws,2013-08-12 06:39:00,
2013-08-11 23:44:00,63.9,56.9,30.00,North,-999,0.0,0.0,78,0.00,,,0.00,pywws,2013-08-12 06:44:00,
2013-08-11 23:49:00,63.7,56.7,30.00,North,-999,0.0,0.0,78,0.00,,,0.00,pywws,2013-08-12 06:49:00,